1MA1 weather

Deaconess Nashoba Hospital Heliport
Ayer, Massachusetts, United States

Public forecast

Using degrees Fahrenheit for public forecast. Weather courtesy of forecast.io.

METAR (pilot weather report)

Closest report is Fitchburg Municipal Airport, 8.3 nm (15.4 km) W. Retrieved 2019/09/23 13:52 UTC (60 minutes ago):

KFIT 231352Z AUTO 20010KT 10SM CLR 26/18 A2985 RMK AO2 SLP104 T02610183

TAF (pilot weather forecast)

Closest forecast is Laurence G Hanscom Field, 14.1 nm (26.2 km) ESE. Retrieved 2019/09/23 12:22 UTC (2 hours ago):

TAF KBED 231120Z 2312/2412 22008KT P6SM SCT100 FM240000 20012KT P6SM VCSH BKN050 FM240300 23008KT 3SM -RA BR OVC050 FM240600 25006KT P6SM VCSH OVC050